Time;durP1;ratioP1;P1;durP2;ratioP2;P2;SDS_P1;SDS_P2;PMS_P1;PMS_P2;Temp;Humidity;BMP_temperature;BMP_pressure;BME280_temperature;BME280_humidity;BME280_pressure;Samples;Min_cycle;Max_cycle;Signal;HPM_P1;HPM_P2
2023/07/16 00:05:54;;;;;;;;;;;17.10;99.90;;;;;;21001404;28;19912;-75
2023/07/16 00:15:54;;;;;;;;;;;17.10;99.90;;;;;;20981930;28;19916;-75
2023/07/16 00:25:55;;;;;;;;;;;17.30;99.90;;;;;;21056990;28;20337;-74
2023/07/16 00:35:55;;;;;;;;;;;17.30;99.90;;;;;;21000226;28;19920;-76
2023/07/16 00:45:57;;;;;;;;;;;17.30;99.90;;;;;;20989617;28;19913;-76
2023/07/16 00:55:58;;;;;;;;;;;17.30;99.90;;;;;;20956392;28;19923;-75
2023/07/16 01:06:15;;;;;;;;;;;17.40;99.90;;;;;;20989960;28;19916;-75
2023/07/16 01:16:20;;;;;;;;;;;17.30;99.90;;;;;;20971696;28;19917;-76
2023/07/16 01:26:21;;;;;;;;;;;17.20;99.90;;;;;;21025334;28;20511;-76
2023/07/16 01:36:22;;;;;;;;;;;17.20;99.90;;;;;;21016403;28;19917;-76
2023/07/16 01:46:23;;;;;;;;;;;17.30;99.90;;;;;;21013285;28;19995;-76
2023/07/16 01:56:24;;;;;;;;;;;17.10;99.90;;;;;;21018407;28;20034;-75
2023/07/16 02:06:25;;;;;;;;;;;17.10;99.90;;;;;;21002220;28;20029;-76
2023/07/16 02:16:26;;;;;;;;;;;17.00;99.90;;;;;;21043755;28;20399;-76
2023/07/16 02:26:26;;;;;;;;;;;17.00;99.90;;;;;;21026243;28;20452;-76
2023/07/16 02:36:27;;;;;;;;;;;16.90;99.90;;;;;;21047607;28;19920;-76
2023/07/16 02:46:27;;;;;;;;;;;16.90;99.90;;;;;;21083041;28;19922;-76
2023/07/16 02:56:29;;;;;;;;;;;16.70;99.90;;;;;;21007149;28;19916;-76
2023/07/16 03:06:30;;;;;;;;;;;16.70;99.90;;;;;;20996829;28;19979;-76
2023/07/16 03:16:30;;;;;;;;;;;16.60;99.90;;;;;;20984217;28;20346;-77
2023/07/16 03:26:31;;;;;;;;;;;16.70;99.90;;;;;;20978501;28;19919;-77
2023/07/16 03:36:32;;;;;;;;;;;16.80;99.90;;;;;;20977315;28;20637;-77
2023/07/16 03:46:33;;;;;;;;;;;16.60;99.90;;;;;;20976374;28;19959;-77
2023/07/16 03:56:34;;;;;;;;;;;16.70;99.90;;;;;;20975536;28;20005;-76
2023/07/16 04:06:35;;;;;;;;;;;16.60;99.90;;;;;;20973869;28;19932;-76
2023/07/16 04:16:35;;;;;;;;;;;16.80;99.90;;;;;;20991366;28;19955;-76
2023/07/16 04:26:36;;;;;;;;;;;16.90;99.90;;;;;;20992180;28;19920;-76
2023/07/16 04:36:38;;;;;;;;;;;16.90;99.90;;;;;;20991339;28;19916;-78
2023/07/16 04:46:38;;;;;;;;;;;16.80;99.90;;;;;;20991576;28;19938;-75
2023/07/16 04:56:39;;;;;;;;;;;16.80;99.90;;;;;;20990596;28;20384;-75
2023/07/16 05:06:40;;;;;;;;;;;17.00;99.90;;;;;;20995375;28;19913;-75
2023/07/16 05:16:40;;;;;;;;;;;17.00;99.90;;;;;;20993521;28;19917;-78
2023/07/16 05:26:41;;;;;;;;;;;16.90;99.90;;;;;;21031734;28;19920;-81
2023/07/16 05:36:42;;;;;;;;;;;17.00;99.90;;;;;;21067812;28;19923;-78
2023/07/16 05:46:42;;;;;;;;;;;17.20;99.90;;;;;;21105034;28;19958;-79
2023/07/16 05:56:43;;;;;;;;;;;17.80;99.90;;;;;;21110366;28;19920;-78
2023/07/16 06:06:44;;;;;;;;;;;17.90;99.90;;;;;;21104778;28;19999;-78
2023/07/16 06:16:44;;;;;;;;;;;17.60;99.90;;;;;;21073404;28;19916;-79
2023/07/16 06:26:47;;;;;;;;;;;17.90;99.90;;;;;;21018306;28;19920;-77
2023/07/16 06:36:48;;;;;;;;;;;18.20;99.90;;;;;;21046158;28;19974;-76
2023/07/16 06:46:50;;;;;;;;;;;17.70;99.90;;;;;;20963977;28;21549;-76
2023/07/16 06:56:51;;;;;;;;;;;17.50;99.90;;;;;;20980373;28;20525;-77
2023/07/16 07:06:51;;;;;;;;;;;17.90;99.90;;;;;;20970193;28;19912;-77
2023/07/16 07:16:52;;;;;;;;;;;18.30;99.90;;;;;;21006570;28;19916;-78
2023/07/16 07:26:53;;;;;;;;;;;18.50;99.90;;;;;;21026589;28;19917;-79
2023/07/16 07:36:53;;;;;;;;;;;18.50;99.90;;;;;;21038005;28;19924;-79
2023/07/16 07:46:54;;;;;;;;;;;19.30;99.90;;;;;;21031681;28;19912;-78
2023/07/16 07:56:55;;;;;;;;;;;19.80;99.90;;;;;;21032921;28;20286;-78
2023/07/16 08:06:55;;;;;;;;;;;19.50;99.90;;;;;;21032439;28;19974;-79
2023/07/16 08:16:56;;;;;;;;;;;19.50;99.90;;;;;;21047657;28;20019;-79
2023/07/16 08:26:57;;;;;;;;;;;19.80;99.90;;;;;;20956401;28;20016;-79
2023/07/16 08:36:58;;;;;;;;;;;20.10;99.90;;;;;;21053770;28;19916;-77
2023/07/16 08:46:59;;;;;;;;;;;20.00;99.90;;;;;;21002390;28;20007;-78
2023/07/16 08:56:59;;;;;;;;;;;20.80;99.90;;;;;;21035897;28;20402;-78
2023/07/16 09:07:00;;;;;;;;;;;21.20;99.90;;;;;;21029878;28;20006;-77
2023/07/16 09:17:02;;;;;;;;;;;21.00;99.90;;;;;;21093385;28;20294;-78
2023/07/16 09:27:02;;;;;;;;;;;21.00;99.90;;;;;;21022051;28;20294;-78
2023/07/16 09:37:04;;;;;;;;;;;20.80;99.90;;;;;;21005205;28;20023;-78
2023/07/16 09:47:05;;;;;;;;;;;20.60;99.90;;;;;;21004069;28;19912;-77
2023/07/16 09:57:06;;;;;;;;;;;21.70;99.90;;;;;;20986121;28;20552;-78
2023/07/16 10:07:17;;;;;;;;;;;21.70;99.90;;;;;;21002063;28;19960;-77
2023/07/16 10:17:22;;;;;;;;;;;21.40;99.90;;;;;;21002199;28;19917;-77
2023/07/16 10:27:30;;;;;;;;;;;21.60;99.90;;;;;;21023106;28;19965;-76
2023/07/16 10:37:30;;;;;;;;;;;21.80;99.90;;;;;;21035571;28;19924;-77
2023/07/16 10:47:32;;;;;;;;;;;22.00;99.90;;;;;;21040869;28;19958;-78
2023/07/16 10:57:32;;;;;;;;;;;23.60;99.90;;;;;;21068441;28;19923;-77
2023/07/16 11:07:33;;;;;;;;;;;24.30;99.90;;;;;;21102856;28;19924;-79
2023/07/16 11:17:36;;;;;;;;;;;24.90;99.90;;;;;;21087805;28;19920;-77
2023/07/16 11:27:40;;;;;;;;;;;24.10;99.90;;;;;;20996687;28;19912;-77
2023/07/16 11:37:41;;;;;;;;;;;24.60;99.90;;;;;;21009965;28;19917;-77
2023/07/16 11:47:41;;;;;;;;;;;25.20;99.90;;;;;;21008913;28;20458;-77
2023/07/16 11:57:42;;;;;;;;;;;25.20;99.90;;;;;;20999808;28;20301;-76
2023/07/16 12:07:42;;;;;;;;;;;24.20;99.90;;;;;;21030111;28;19932;-77
2023/07/16 12:17:43;;;;;;;;;;;25.20;99.90;;;;;;20966264;28;20475;-77
2023/07/16 12:27:44;;;;;;;;;;;25.10;99.90;;;;;;21004930;28;19965;-79
2023/07/16 12:37:44;;;;;;;;;;;26.00;99.90;;;;;;21012066;28;19916;-77
2023/07/16 12:47:45;;;;;;;;;;;26.50;99.90;;;;;;20996509;28;19912;-77
2023/07/16 12:57:46;;;;;;;;;;;25.50;99.90;;;;;;20994451;28;19924;-77
2023/07/16 13:07:46;;;;;;;;;;;26.20;99.90;;;;;;21000053;28;19958;-78
2023/07/16 13:17:50;;;;;;;;;;;26.40;99.90;;;;;;21007151;28;19943;-77
2023/07/16 13:27:52;;;;;;;;;;;26.30;99.90;;;;;;20992812;28;19913;-76
2023/07/16 13:37:53;;;;;;;;;;;26.10;99.90;;;;;;21026073;28;19922;-78
2023/07/16 13:47:55;;;;;;;;;;;25.50;99.90;;;;;;20978680;28;20267;-77
2023/07/16 13:57:55;;;;;;;;;;;25.90;99.90;;;;;;21017413;28;19967;-77
2023/07/16 14:07:56;;;;;;;;;;;25.50;99.90;;;;;;21010817;28;19912;-76
2023/07/16 14:17:57;;;;;;;;;;;26.10;99.90;;;;;;21001821;28;19974;-77
2023/07/16 14:27:57;;;;;;;;;;;26.40;99.90;;;;;;21012902;28;19916;-79
2023/07/16 14:37:58;;;;;;;;;;;25.60;99.90;;;;;;20987741;28;20270;-76
2023/07/16 14:47:59;;;;;;;;;;;25.80;99.90;;;;;;21002060;28;19912;-76
2023/07/16 14:58:00;;;;;;;;;;;25.30;99.90;;;;;;21002494;28;19977;-76
2023/07/16 15:08:00;;;;;;;;;;;24.60;99.90;;;;;;21009728;28;19979;-77
2023/07/16 15:18:01;;;;;;;;;;;24.10;99.90;;;;;;21023099;28;19924;-77
2023/07/16 15:28:02;;;;;;;;;;;24.00;99.90;;;;;;21003613;28;19912;-79
2023/07/16 15:38:03;;;;;;;;;;;24.50;99.90;;;;;;21026856;28;19916;-74
2023/07/16 15:48:04;;;;;;;;;;;25.60;99.90;;;;;;21004327;28;19912;-75
2023/07/16 15:58:05;;;;;;;;;;;24.70;99.90;;;;;;20976854;28;20011;-76
2023/07/16 16:08:16;;;;;;;;;;;24.10;99.90;;;;;;21001843;28;19935;-74
2023/07/16 16:18:17;;;;;;;;;;;24.50;99.90;;;;;;20965279;28;20011;-75
2023/07/16 16:28:18;;;;;;;;;;;25.00;99.90;;;;;;20995959;28;19912;-75
2023/07/16 16:38:18;;;;;;;;;;;25.10;99.90;;;;;;20978662;28;19923;-76
2023/07/16 16:48:19;;;;;;;;;;;24.40;99.90;;;;;;20994452;28;20061;-79
2023/07/16 16:58:20;;;;;;;;;;;24.50;99.90;;;;;;20995376;28;20010;-75
2023/07/16 17:08:22;;;;;;;;;;;24.20;99.90;;;;;;20992642;28;20436;-76
2023/07/16 17:18:22;;;;;;;;;;;24.20;99.90;;;;;;20989955;28;19927;-75
2023/07/16 17:28:23;;;;;;;;;;;24.00;99.90;;;;;;21029077;28;20426;-76
2023/07/16 17:38:24;;;;;;;;;;;24.30;99.90;;;;;;20987444;28;19967;-75
2023/07/16 17:48:24;;;;;;;;;;;24.10;99.90;;;;;;21022252;28;19923;-78
2023/07/16 17:58:25;;;;;;;;;;;23.70;99.90;;;;;;21022517;28;20294;-77
2023/07/16 18:08:27;;;;;;;;;;;23.90;99.90;;;;;;21030285;28;19927;-76
2023/07/16 18:18:29;;;;;;;;;;;24.70;99.90;;;;;;21034968;28;19917;-76
2023/07/16 18:28:30;;;;;;;;;;;24.70;99.90;;;;;;21037765;28;19928;-79
2023/07/16 18:38:30;;;;;;;;;;;23.30;99.90;;;;;;21079507;28;19941;-74
2023/07/16 18:48:31;;;;;;;;;;;22.90;99.90;;;;;;21036555;28;19986;-80
2023/07/16 18:58:32;;;;;;;;;;;22.80;99.90;;;;;;21022957;28;19916;-78
2023/07/16 19:08:33;;;;;;;;;;;22.10;99.90;;;;;;21013476;28;19919;-77
2023/07/16 19:18:34;;;;;;;;;;;21.90;99.90;;;;;;21023665;28;20425;-76
2023/07/16 19:28:34;;;;;;;;;;;21.80;99.90;;;;;;20983893;28;19965;-75
2023/07/16 19:38:35;;;;;;;;;;;21.60;99.90;;;;;;21000075;28;19923;-77
2023/07/16 19:48:36;;;;;;;;;;;21.50;99.90;;;;;;20998167;28;19913;-76
2023/07/16 19:58:36;;;;;;;;;;;21.40;99.90;;;;;;21009230;28;19924;-76
2023/07/16 20:08:37;;;;;;;;;;;21.30;99.90;;;;;;20945377;28;19916;-75
2023/07/16 20:18:37;;;;;;;;;;;21.20;99.90;;;;;;21027038;28;19952;-76
2023/07/16 20:28:38;;;;;;;;;;;21.20;99.90;;;;;;21033935;28;20378;-76
2023/07/16 20:38:39;;;;;;;;;;;21.10;99.90;;;;;;21051047;28;19924;-76
2023/07/16 20:48:42;;;;;;;;;;;21.00;99.90;;;;;;21022304;28;19926;-77
2023/07/16 20:58:42;;;;;;;;;;;20.60;99.90;;;;;;21032568;28;19954;-75
2023/07/16 21:08:43;;;;;;;;;;;20.40;99.90;;;;;;21027158;28;19999;-75
2023/07/16 21:18:44;;;;;;;;;;;20.00;99.90;;;;;;21029971;28;20214;-75
2023/07/16 21:28:45;;;;;;;;;;;19.70;99.90;;;;;;21022563;28;19939;-77
2023/07/16 21:38:45;;;;;;;;;;;19.80;99.90;;;;;;21035706;28;20011;-77
2023/07/16 21:48:46;;;;;;;;;;;19.50;99.90;;;;;;21030330;28;19980;-77
2023/07/16 21:58:47;;;;;;;;;;;19.40;99.90;;;;;;21032359;28;20152;-76
2023/07/16 22:08:47;;;;;;;;;;;19.30;99.90;;;;;;21016614;28;19918;-76
2023/07/16 22:18:48;;;;;;;;;;;19.00;99.90;;;;;;21001917;28;19923;-76
2023/07/16 22:28:48;;;;;;;;;;;19.10;99.90;;;;;;21001195;28;19951;-76
2023/07/16 22:38:49;;;;;;;;;;;19.10;99.90;;;;;;20995219;28;19923;-77
2023/07/16 22:48:52;;;;;;;;;;;19.10;99.90;;;;;;20999604;28;20007;-76
2023/07/16 22:58:53;;;;;;;;;;;19.10;99.90;;;;;;21003766;28;20172;-76
2023/07/16 23:08:54;;;;;;;;;;;19.00;99.90;;;;;;20998409;28;19913;-76
2023/07/16 23:18:54;;;;;;;;;;;19.00;99.90;;;;;;20996702;28;20275;-76
2023/07/16 23:28:55;;;;;;;;;;;19.10;99.90;;;;;;20996381;28;19960;-76
2023/07/16 23:38:56;;;;;;;;;;;19.10;99.90;;;;;;20995821;28;19924;-76
2023/07/16 23:48:56;;;;;;;;;;;19.20;99.90;;;;;;20999544;28;19913;-76
2023/07/16 23:58:57;;;;;;;;;;;19.10;99.90;;;;;;20994975;28;19920;-76
